Denver ARTCC

A member of the VATUSA division of VATSIM
Online Controllers
No online controllers
Airport Weather
KDEN VFR 240 @ 10 30.41
KASE VFR 360 @ 04 30.40
KCOS VFR 010 @ 05 30.42
KGJT VFR 130 @ 06 30.38
Airport Search

Airport Information

KASE Aspen–Pitkin County Airport

KASE 161453Z 36004KT 10SM CLR M05/M10 A3040 RMK AO2 SLP301 T10501100 53005


© 2018 Denver ARTCC. All rights reserved. Information contained on this website is intended for simulation purposes only. Do not use for real world operations. We are not affiliated with the FAA or any other government agency. Photographs provided courtesy of Denver International Airport. Developed by Mark Swan.